Time;durP1;ratioP1;P1;durP2;ratioP2;P2;SDS_P1;SDS_P2;PMS_P1;PMS_P2;Temp;Humidity;BMP_temperature;BMP_pressure;BME280_temperature;BME280_humidity;BME280_pressure;Samples;Min_cycle;Max_cycle;Signal;HPM_P1;HPM_P2
2021/08/09 00:02:01;;;;;;;2.00;1.90;;;16.30;99.90;;;;;;5087293;28;20458;-73
2021/08/09 00:04:29;;;;;;;2.80;1.93;;;16.30;99.90;;;;;;5076092;28;20454;-74
2021/08/09 00:06:55;;;;;;;3.03;2.00;;;16.20;99.90;;;;;;5076347;28;20504;-75
2021/08/09 00:09:22;;;;;;;2.67;1.70;;;16.20;99.90;;;;;;5076394;28;20458;-74
2021/08/09 00:11:49;;;;;;;3.60;2.00;;;16.20;99.90;;;;;;5076315;28;20458;-74
2021/08/09 00:14:16;;;;;;;2.17;1.90;;;16.10;99.90;;;;;;5076450;28;20484;-74
2021/08/09 00:16:42;;;;;;;2.20;2.00;;;16.10;99.90;;;;;;5076551;28;20759;-75
2021/08/09 00:19:09;;;;;;;2.90;2.23;;;16.00;99.90;;;;;;5076443;28;20469;-75
2021/08/09 00:21:37;;;;;;;3.13;2.10;;;16.00;99.90;;;;;;5076241;28;20465;-74
2021/08/09 00:24:04;;;;;;;1.90;1.77;;;15.90;99.90;;;;;;5076153;28;20927;-75
2021/08/09 00:26:34;;;;;;;1.90;1.70;;;15.90;99.90;;;;;;5075997;28;20504;-75
2021/08/09 00:29:00;;;;;;;2.33;2.03;;;16.00;99.90;;;;;;5076339;28;20850;-75
2021/08/09 00:31:28;;;;;;;3.00;2.33;;;15.90;99.90;;;;;;5075792;28;20457;-75
2021/08/09 00:33:54;;;;;;;3.63;1.83;;;15.90;99.90;;;;;;5075851;28;20454;-75
2021/08/09 00:36:21;;;;;;;2.10;1.90;;;15.80;99.90;;;;;;5076022;28;20458;-75
2021/08/09 00:38:49;;;;;;;3.00;1.90;;;15.80;99.90;;;;;;5075543;28;20458;-75
2021/08/09 00:41:16;;;;;;;2.33;1.70;;;15.80;99.90;;;;;;5075480;28;20863;-75
2021/08/09 00:43:43;;;;;;;3.60;1.70;;;15.70;99.90;;;;;;5076513;28;20461;-75
2021/08/09 00:46:10;;;;;;;4.17;1.93;;;15.70;99.90;;;;;;5074772;28;20481;-75
2021/08/09 00:48:36;;;;;;;3.77;1.63;;;15.70;99.90;;;;;;5075715;28;20469;-76
2021/08/09 00:51:04;;;;;;;5.40;1.43;;;15.70;99.90;;;;;;5075670;28;20454;-75
2021/08/09 00:53:31;;;;;;;2.03;1.83;;;15.70;99.90;;;;;;5075618;28;20783;-76
2021/08/09 00:55:59;;;;;;;3.10;1.93;;;15.70;99.90;;;;;;5075748;28;20462;-75
2021/08/09 00:58:26;;;;;;;2.97;2.00;;;15.60;99.90;;;;;;5075642;28;20535;-75
2021/08/09 01:00:52;;;;;;;2.33;2.00;;;15.60;99.90;;;;;;5075667;28;20511;-75
2021/08/09 01:03:19;;;;;;;1.67;1.57;;;15.60;99.90;;;;;;5075452;28;20458;-75
2021/08/09 01:05:48;;;;;;;2.57;2.10;;;15.60;99.90;;;;;;5075303;28;20789;-75
2021/08/09 01:08:24;;;;;;;2.33;1.87;;;15.60;99.90;;;;;;5075236;28;20547;-75
2021/08/09 01:11:02;;;;;;;3.33;1.93;;;15.50;99.90;;;;;;5075365;28;20449;-76
2021/08/09 01:13:36;;;;;;;3.10;1.97;;;15.50;99.90;;;;;;5075215;28;20442;-75
2021/08/09 01:16:08;;;;;;;2.80;2.17;;;15.50;99.90;;;;;;5075166;28;20455;-75
2021/08/09 01:18:38;;;;;;;5.77;2.33;;;15.50;99.90;;;;;;5075185;28;20545;-75
2021/08/09 01:21:07;;;;;;;2.10;1.80;;;15.50;99.90;;;;;;5075063;28;20458;-76
2021/08/09 01:24:06;;;;;;;1.80;1.70;;;15.50;99.90;;;;;;5075187;28;20465;-75
2021/08/09 01:26:40;;;;;;;3.00;1.90;;;15.50;99.90;;;;;;5074924;28;20477;-75
2021/08/09 01:29:11;;;;;;;1.70;1.60;;;15.50;99.90;;;;;;5075268;28;20782;-75
2021/08/09 01:31:43;;;;;;;2.60;2.40;;;15.50;99.90;;;;;;5075159;28;20465;-75
2021/08/09 01:34:12;;;;;;;2.97;1.70;;;15.50;99.90;;;;;;5075114;28;20469;-75
2021/08/09 01:36:43;;;;;;;2.87;1.70;;;15.50;99.90;;;;;;5075470;28;20495;-75
2021/08/09 01:39:11;;;;;;;2.43;1.90;;;15.50;99.90;;;;;;5077236;28;20808;-75
2021/08/09 01:41:39;;;;;;;4.30;1.67;;;15.40;99.90;;;;;;5075374;28;20449;-75
2021/08/09 01:44:08;;;;;;;2.60;1.60;;;15.40;99.90;;;;;;5074998;28;20469;-76
2021/08/09 01:46:35;;;;;;;2.67;2.20;;;15.40;99.90;;;;;;5074781;28;20474;-76
2021/08/09 01:49:03;;;;;;;2.40;1.77;;;15.40;99.90;;;;;;5074716;28;20453;-76
2021/08/09 01:51:31;;;;;;;2.00;1.80;;;15.40;99.90;;;;;;5075176;28;20528;-74
2021/08/09 01:53:58;;;;;;;2.80;1.77;;;15.40;99.90;;;;;;5075328;28;20455;-74
2021/08/09 01:56:25;;;;;;;2.80;2.13;;;15.40;99.90;;;;;;5077204;28;20478;-74
2021/08/09 01:58:52;;;;;;;3.93;2.23;;;15.40;99.90;;;;;;5078352;28;20544;-75
2021/08/09 02:01:20;;;;;;;2.20;2.00;;;15.40;99.90;;;;;;5078882;28;20466;-75
2021/08/09 02:03:48;;;;;;;2.90;2.13;;;15.40;99.90;;;;;;5080340;28;20465;-74
2021/08/09 02:06:15;;;;;;;2.67;1.80;;;15.40;99.90;;;;;;5081436;28;20828;-74
2021/08/09 02:08:42;;;;;;;2.37;2.00;;;15.30;99.90;;;;;;5080130;28;20460;-75
2021/08/09 02:11:14;;;;;;;3.70;1.87;;;15.30;99.90;;;;;;5078686;28;20466;-74
2021/08/09 02:13:45;;;;;;;2.80;1.60;;;15.30;99.90;;;;;;5078125;28;20469;-76
2021/08/09 02:16:15;;;;;;;2.63;1.60;;;15.30;99.90;;;;;;5077519;28;20453;-75
2021/08/09 02:18:46;;;;;;;3.33;1.80;;;15.30;99.90;;;;;;5076245;28;20469;-74
2021/08/09 02:21:15;;;;;;;5.67;1.77;;;15.30;99.90;;;;;;5076983;28;20457;-74
2021/08/09 02:23:47;;;;;;;3.00;1.80;;;15.30;99.90;;;;;;5077969;28;20469;-75
2021/08/09 02:26:18;;;;;;;1.70;1.53;;;15.20;99.90;;;;;;5077923;28;20485;-74
2021/08/09 02:28:50;;;;;;;2.83;1.60;;;15.20;99.90;;;;;;5078674;28;20488;-76
2021/08/09 02:31:20;;;;;;;2.00;1.70;;;15.20;99.90;;;;;;5079802;28;20438;-76
2021/08/09 02:33:49;;;;;;;2.30;1.50;;;15.20;99.90;;;;;;5079010;28;20454;-75
2021/08/09 02:36:16;;;;;;;2.87;1.40;;;15.20;99.90;;;;;;5079607;28;20468;-76
2021/08/09 02:38:44;;;;;;;1.63;1.53;;;15.20;99.90;;;;;;5078908;28;20458;-75
2021/08/09 02:41:11;;;;;;;3.83;1.83;;;15.20;99.90;;;;;;5078071;28;20550;-75
2021/08/09 02:43:38;;;;;;;2.20;1.80;;;15.20;99.90;;;;;;5078049;28;20535;-75
2021/08/09 02:46:06;;;;;;;3.83;1.87;;;15.20;99.90;;;;;;5078385;28;20454;-75
2021/08/09 02:48:33;;;;;;;1.97;1.57;;;15.20;99.90;;;;;;5080723;28;20482;-75
2021/08/09 02:51:01;;;;;;;1.70;1.53;;;15.20;99.90;;;;;;5080691;28;20454;-75
2021/08/09 02:53:29;;;;;;;1.90;1.70;;;15.20;99.90;;;;;;5078152;28;20468;-75
2021/08/09 02:56:00;;;;;;;2.70;1.70;;;15.10;99.90;;;;;;5074720;28;20454;-75
2021/08/09 02:58:26;;;;;;;1.80;1.70;;;15.10;99.90;;;;;;5074478;28;20438;-75
2021/08/09 03:00:55;;;;;;;2.60;1.63;;;15.10;99.90;;;;;;5074581;28;20462;-75
2021/08/09 03:03:24;;;;;;;3.20;2.00;;;15.10;99.90;;;;;;5074110;28;20465;-75
2021/08/09 03:05:54;;;;;;;3.17;1.63;;;15.00;99.90;;;;;;5074761;28;20464;-74
2021/08/09 03:08:22;;;;;;;2.83;1.90;;;15.00;99.90;;;;;;5075870;28;20474;-75
2021/08/09 03:10:50;;;;;;;3.57;1.83;;;15.00;99.90;;;;;;5078066;28;20533;-75
2021/08/09 03:13:21;;;;;;;4.77;1.90;;;15.00;99.90;;;;;;5078498;28;20458;-75
2021/08/09 03:15:48;;;;;;;2.30;2.10;;;15.00;99.90;;;;;;5078942;28;20453;-75
2021/08/09 03:18:15;;;;;;;1.87;1.70;;;15.00;99.90;;;;;;5080791;28;20465;-75
2021/08/09 03:20:42;;;;;;;2.67;1.77;;;15.00;99.90;;;;;;5086439;28;20455;-75
2021/08/09 03:23:08;;;;;;;2.77;1.93;;;14.90;99.90;;;;;;5087974;28;20458;-74
2021/08/09 03:25:37;;;;;;;3.20;1.90;;;14.90;99.90;;;;;;5089556;28;20527;-75
2021/08/09 03:28:04;;;;;;;2.50;1.87;;;14.90;99.90;;;;;;5086777;28;20504;-75
2021/08/09 03:30:31;;;;;;;3.20;1.70;;;14.80;99.90;;;;;;5086540;28;20468;-75
2021/08/09 03:32:58;;;;;;;3.97;2.40;;;14.80;99.90;;;;;;5087638;28;20469;-75
2021/08/09 03:35:25;;;;;;;2.57;2.00;;;14.80;99.90;;;;;;5087243;28;20494;-75
2021/08/09 03:37:52;;;;;;;2.83;1.67;;;14.80;99.90;;;;;;5086995;28;20446;-74
2021/08/09 03:40:19;;;;;;;2.97;2.20;;;14.80;99.90;;;;;;5088074;28;20574;-75
2021/08/09 03:42:47;;;;;;;4.73;2.00;;;14.80;99.90;;;;;;5087069;28;20454;-75
2021/08/09 03:45:14;;;;;;;3.30;1.70;;;14.80;99.90;;;;;;5087596;28;20541;-75
2021/08/09 03:47:41;;;;;;;2.97;2.17;;;14.80;99.90;;;;;;5086121;28;20481;-75
2021/08/09 03:50:09;;;;;;;4.53;2.53;;;14.80;99.90;;;;;;5087361;28;20484;-76
2021/08/09 03:52:35;;;;;;;2.10;1.83;;;14.80;99.90;;;;;;5086905;28;20450;-75
2021/08/09 03:55:02;;;;;;;2.13;1.60;;;14.80;99.90;;;;;;5085290;28;20462;-76
2021/08/09 03:57:29;;;;;;;2.63;2.10;;;14.80;99.90;;;;;;5085795;28;20450;-75
2021/08/09 03:59:57;;;;;;;2.30;1.90;;;14.80;99.90;;;;;;5085680;28;20545;-75
2021/08/09 04:02:29;;;;;;;2.57;2.00;;;14.80;99.90;;;;;;5080158;28;20450;-75
2021/08/09 04:04:58;;;;;;;4.50;2.27;;;14.70;99.90;;;;;;5077300;28;20439;-74
2021/08/09 04:07:26;;;;;;;6.90;2.20;;;14.80;99.90;;;;;;5077280;28;20558;-75
2021/08/09 04:09:53;;;;;;;3.43;1.93;;;14.80;99.90;;;;;;5076489;28;20901;-74
2021/08/09 04:12:19;;;;;;;5.77;2.20;;;14.80;99.90;;;;;;5076656;28;20469;-76
2021/08/09 04:14:46;;;;;;;2.77;2.20;;;14.80;99.90;;;;;;5076835;28;20462;-75
2021/08/09 04:17:14;;;;;;;3.70;3.07;;;14.80;99.90;;;;;;5076692;28;20458;-75
2021/08/09 04:19:41;;;;;;;3.57;2.33;;;14.80;99.90;;;;;;5075580;28;20557;-75
2021/08/09 04:22:08;;;;;;;2.63;2.00;;;14.80;99.90;;;;;;5076598;28;20473;-75
2021/08/09 04:24:35;;;;;;;2.37;2.10;;;14.90;99.90;;;;;;5076507;28;20461;-75
2021/08/09 04:27:02;;;;;;;3.80;2.40;;;14.90;99.90;;;;;;5075890;28;20458;-75
2021/08/09 04:29:29;;;;;;;3.67;2.43;;;14.90;99.90;;;;;;5076106;28;20462;-75
2021/08/09 04:31:56;;;;;;;3.57;2.10;;;15.00;99.90;;;;;;5076402;28;20473;-75
2021/08/09 04:34:24;;;;;;;4.50;2.50;;;15.00;99.90;;;;;;5076506;28;20882;-76
2021/08/09 04:36:50;;;;;;;3.97;2.30;;;15.00;99.90;;;;;;5075938;28;20454;-76
2021/08/09 04:39:17;;;;;;;2.13;1.93;;;15.00;99.90;;;;;;5075466;28;20481;-75
2021/08/09 04:41:44;;;;;;;2.07;1.83;;;15.10;99.90;;;;;;5075937;28;20462;-75
2021/08/09 04:44:12;;;;;;;2.40;2.20;;;15.10;99.90;;;;;;5075876;28;20473;-75
2021/08/09 04:46:40;;;;;;;2.13;1.80;;;15.10;99.90;;;;;;5075737;28;20454;-75
2021/08/09 04:49:07;;;;;;;3.33;2.17;;;15.10;99.90;;;;;;5075495;28;20513;-75
2021/08/09 04:51:35;;;;;;;5.17;2.60;;;15.10;99.90;;;;;;5075881;28;20462;-75
2021/08/09 04:54:02;;;;;;;2.97;1.97;;;15.10;99.90;;;;;;5075703;28;20468;-75
2021/08/09 04:56:28;;;;;;;3.23;2.00;;;15.10;99.90;;;;;;5075445;28;20481;-76
2021/08/09 04:58:55;;;;;;;8.40;2.43;;;15.10;99.90;;;;;;5076065;28;20454;-74
2021/08/09 05:01:22;;;;;;;2.23;2.10;;;15.20;99.90;;;;;;5075685;28;20462;-76
2021/08/09 05:03:48;;;;;;;3.93;2.47;;;15.20;99.90;;;;;;5075358;28;20465;-76
2021/08/09 05:06:15;;;;;;;3.40;2.20;;;15.30;99.90;;;;;;5075194;28;20488;-76
2021/08/09 05:08:43;;;;;;;2.77;2.57;;;15.20;99.90;;;;;;5075107;28;20481;-76
2021/08/09 05:11:12;;;;;;;3.70;2.40;;;15.20;99.90;;;;;;5075642;28;20458;-76
2021/08/09 05:13:39;;;;;;;3.60;2.67;;;15.20;99.90;;;;;;5075262;28;20454;-76
2021/08/09 05:16:06;;;;;;;2.77;2.40;;;15.30;99.90;;;;;;5075240;28;20473;-76
2021/08/09 05:18:32;;;;;;;3.70;2.23;;;15.30;99.90;;;;;;5076771;28;20875;-76
2021/08/09 05:20:59;;;;;;;4.63;2.43;;;15.40;99.90;;;;;;5076525;28;20458;-76
2021/08/09 05:23:26;;;;;;;4.23;2.80;;;15.40;99.90;;;;;;5075889;28;20800;-75
2021/08/09 05:25:54;;;;;;;2.70;2.10;;;15.40;99.90;;;;;;5075240;28;20465;-76
2021/08/09 05:28:21;;;;;;;3.00;2.47;;;15.50;99.90;;;;;;5075220;28;20474;-77
2021/08/09 05:30:49;;;;;;;5.40;2.43;;;15.50;99.90;;;;;;5074794;28;20469;-75
2021/08/09 05:33:16;;;;;;;2.50;2.17;;;15.60;99.90;;;;;;5074702;28;20454;-75
2021/08/09 05:35:44;;;;;;;2.43;2.17;;;15.70;99.90;;;;;;5074982;28;20466;-75
2021/08/09 05:38:11;;;;;;;4.33;2.10;;;15.70;99.90;;;;;;5075010;28;20458;-75
2021/08/09 05:40:38;;;;;;;2.70;2.10;;;15.70;99.90;;;;;;5074518;28;20492;-75
2021/08/09 05:43:06;;;;;;;2.53;2.27;;;15.80;99.90;;;;;;5074859;28;20454;-75
2021/08/09 05:45:33;;;;;;;3.17;2.00;;;15.80;99.90;;;;;;5075112;28;20870;-75
2021/08/09 05:48:00;;;;;;;3.00;2.30;;;15.90;99.90;;;;;;5074336;28;20513;-76
2021/08/09 05:50:27;;;;;;;2.57;1.70;;;16.00;99.90;;;;;;5074962;28;20458;-76
2021/08/09 05:52:54;;;;;;;2.30;2.10;;;16.10;99.90;;;;;;5074394;28;20471;-75
2021/08/09 05:55:23;;;;;;;4.80;2.40;;;16.10;99.90;;;;;;5074419;28;20917;-75
2021/08/09 05:57:50;;;;;;;2.20;2.00;;;16.20;99.90;;;;;;5074502;28;20469;-75
2021/08/09 06:00:19;;;;;;;4.10;2.00;;;16.20;99.90;;;;;;5074197;28;20528;-75
2021/08/09 06:02:45;;;;;;;3.80;2.50;;;16.30;99.90;;;;;;5074574;28;20558;-75
2021/08/09 06:05:13;;;;;;;6.33;2.33;;;16.30;99.90;;;;;;5074643;28;20527;-76
2021/08/09 06:07:39;;;;;;;2.73;2.30;;;16.40;99.90;;;;;;5074472;28;20561;-75
2021/08/09 06:10:08;;;;;;;2.30;2.10;;;16.50;99.90;;;;;;5074351;28;20464;-74
2021/08/09 06:12:36;;;;;;;3.10;2.03;;;16.50;99.90;;;;;;5073685;28;20454;-75
2021/08/09 06:15:04;;;;;;;2.20;1.93;;;16.60;99.90;;;;;;5073860;28;20784;-75
2021/08/09 06:17:32;;;;;;;2.30;2.10;;;16.70;99.90;;;;;;5074491;28;20541;-76
2021/08/09 06:19:59;;;;;;;2.57;1.93;;;16.70;99.90;;;;;;5074427;28;20454;-76
2021/08/09 06:22:25;;;;;;;2.50;1.93;;;16.80;99.90;;;;;;5074201;28;20464;-76
2021/08/09 06:24:52;;;;;;;3.33;2.10;;;16.80;99.90;;;;;;5074231;28;20795;-76
2021/08/09 06:27:19;;;;;;;12.97;8.90;;;16.90;99.90;;;;;;5073865;28;20491;-75
2021/08/09 06:29:46;;;;;;;4.37;2.50;;;16.90;99.90;;;;;;5074361;28;20493;-75
2021/08/09 06:32:13;;;;;;;2.37;2.17;;;17.00;99.90;;;;;;5074519;28;20458;-75
2021/08/09 06:34:41;;;;;;;2.60;2.10;;;17.10;99.90;;;;;;5076333;28;20473;-74
2021/08/09 06:37:07;;;;;;;3.70;2.57;;;17.20;99.90;;;;;;5076096;28;20950;-74
2021/08/09 06:39:34;;;;;;;6.33;2.80;;;17.30;99.90;;;;;;5075948;28;20475;-74
2021/08/09 06:42:03;;;;;;;5.43;2.20;;;17.40;99.90;;;;;;5076071;28;20461;-74
2021/08/09 06:44:32;;;;;;;5.10;2.10;;;17.40;99.90;;;;;;5079867;28;20527;-74
2021/08/09 06:46:59;;;;;;;2.23;1.93;;;17.40;99.90;;;;;;5080479;28;20454;-75
2021/08/09 06:49:26;;;;;;;2.77;2.30;;;17.40;99.90;;;;;;5080289;28;20961;-75
2021/08/09 06:51:54;;;;;;;4.40;2.10;;;17.40;99.90;;;;;;5079964;28;20457;-74
2021/08/09 06:54:24;;;;;;;2.13;1.93;;;17.50;99.90;;;;;;5080080;28;20541;-74
2021/08/09 06:56:51;;;;;;;3.83;1.90;;;17.50;99.90;;;;;;5079393;28;20458;-74
2021/08/09 06:59:18;;;;;;;2.87;1.90;;;17.60;99.90;;;;;;5079162;28;20449;-74
2021/08/09 07:01:44;;;;;;;5.40;2.70;;;17.70;99.90;;;;;;5079786;28;20458;-74
2021/08/09 07:04:11;;;;;;;3.53;2.00;;;17.70;99.90;;;;;;5079346;28;20461;-75
2021/08/09 07:06:38;;;;;;;7.90;2.10;;;17.80;99.90;;;;;;5081855;28;20450;-74
2021/08/09 07:09:06;;;;;;;6.93;2.50;;;17.80;99.90;;;;;;5081232;28;20489;-73
2021/08/09 07:11:33;;;;;;;2.53;1.70;;;17.80;99.90;;;;;;5081346;28;20465;-74
2021/08/09 07:14:00;;;;;;;2.50;1.70;;;17.90;99.90;;;;;;5080599;28;20568;-73
2021/08/09 07:16:27;;;;;;;2.20;2.00;;;17.90;99.90;;;;;;5082308;28;20458;-73
2021/08/09 07:18:54;;;;;;;2.30;1.67;;;17.90;99.90;;;;;;5083655;28;20813;-73
2021/08/09 07:21:21;;;;;;;3.10;2.13;;;17.90;99.90;;;;;;5082670;28;20573;-73
2021/08/09 07:23:48;;;;;;;3.63;1.80;;;17.90;99.90;;;;;;5082219;28;20454;-73
2021/08/09 07:26:16;;;;;;;5.83;2.40;;;18.00;99.90;;;;;;5082803;28;20462;-73
2021/08/09 07:28:43;;;;;;;3.20;2.30;;;18.00;99.90;;;;;;5081570;28;21106;-74
2021/08/09 07:31:10;;;;;;;5.40;2.10;;;18.00;99.90;;;;;;5082768;28;20458;-73
2021/08/09 07:33:38;;;;;;;2.40;1.70;;;18.10;99.90;;;;;;5081999;28;20458;-73
2021/08/09 07:36:06;;;;;;;5.30;2.10;;;18.20;99.90;;;;;;5080961;28;20458;-73
2021/08/09 07:38:33;;;;;;;3.60;2.07;;;18.30;99.90;;;;;;5081581;28;20537;-73
2021/08/09 07:41:00;;;;;;;1.80;1.70;;;18.40;99.90;;;;;;5061391;28;20455;-73
2021/08/09 07:43:28;;;;;;;5.10;2.23;;;18.50;99.90;;;;;;5061062;28;20451;-73
2021/08/09 07:45:55;;;;;;;3.20;2.20;;;18.60;99.90;;;;;;5060494;28;20455;-74
2021/08/09 07:48:22;;;;;;;4.40;1.80;;;18.70;99.90;;;;;;5060257;28;20483;-74
2021/08/09 07:50:49;;;;;;;4.47;2.00;;;18.90;99.90;;;;;;5060578;28;20572;-73
2021/08/09 07:53:16;;;;;;;3.40;1.80;;;19.00;99.90;;;;;;5060491;28;20469;-75
2021/08/09 07:55:43;;;;;;;5.00;3.10;;;19.00;99.90;;;;;;5059576;28;20863;-73
2021/08/09 07:58:10;;;;;;;5.60;2.30;;;19.00;99.90;;;;;;5059500;28;20459;-73
2021/08/09 08:00:39;;;;;;;3.80;2.00;;;19.00;99.90;;;;;;5059648;28;20451;-71
2021/08/09 08:03:06;;;;;;;1.60;1.50;;;19.00;99.90;;;;;;5060376;28;20455;-73
2021/08/09 08:05:33;;;;;;;3.87;1.70;;;19.00;99.90;;;;;;5058703;28;20447;-73
2021/08/09 08:08:00;;;;;;;5.40;1.83;;;19.00;99.90;;;;;;5061360;28;20470;-74
2021/08/09 08:10:27;;;;;;;2.13;1.60;;;18.90;99.90;;;;;;5060412;28;20458;-74
2021/08/09 08:12:53;;;;;;;2.30;1.70;;;19.00;99.90;;;;;;5060785;28;20459;-73
2021/08/09 08:15:20;;;;;;;3.00;2.07;;;19.00;99.90;;;;;;5061304;28;20552;-74
2021/08/09 08:17:48;;;;;;;4.87;2.03;;;19.00;99.90;;;;;;5061243;28;20462;-74
2021/08/09 08:20:15;;;;;;;4.00;1.87;;;19.10;99.90;;;;;;5059773;28;20455;-74
2021/08/09 08:22:42;;;;;;;2.70;2.00;;;19.10;99.90;;;;;;5061049;28;20447;-74
2021/08/09 08:25:10;;;;;;;3.77;1.90;;;19.10;99.90;;;;;;5061099;28;20465;-74
2021/08/09 08:27:37;;;;;;;2.67;2.10;;;19.10;99.90;;;;;;5061393;28;20462;-74
2021/08/09 08:30:05;;;;;;;3.00;2.47;;;19.20;99.90;;;;;;5060973;28;20479;-74
2021/08/09 08:32:32;;;;;;;9.47;2.17;;;19.20;99.90;;;;;;5060007;28;20481;-73
2021/08/09 08:35:01;;;;;;;3.30;2.00;;;19.30;99.90;;;;;;5059099;28;20476;-74
2021/08/09 08:37:28;;;;;;;3.83;2.20;;;19.20;99.90;;;;;;5060729;28;20490;-74
2021/08/09 08:39:54;;;;;;;5.30;2.23;;;19.20;99.90;;;;;;5071447;28;20482;-74
2021/08/09 08:42:21;;;;;;;2.27;1.90;;;19.20;99.90;;;;;;5079941;28;20469;-74
2021/08/09 08:44:50;;;;;;;4.10;1.97;;;19.30;99.90;;;;;;5080145;28;20700;-74
2021/08/09 08:47:20;;;;;;;3.23;1.70;;;19.30;99.90;;;;;;5079753;28;20786;-74
2021/08/09 08:49:48;;;;;;;4.17;1.93;;;19.30;99.90;;;;;;5079290;28;20792;-74
2021/08/09 08:52:17;;;;;;;3.90;1.67;;;19.30;99.90;;;;;;5079948;28;20453;-74
2021/08/09 08:54:44;;;;;;;2.57;1.97;;;19.30;99.90;;;;;;5079993;28;20579;-74
2021/08/09 08:57:18;;;;;;;4.20;2.60;;;19.40;99.90;;;;;;5080117;28;20906;-74
2021/08/09 08:59:45;;;;;;;3.47;2.27;;;19.50;99.90;;;;;;5080668;28;20462;-74
2021/08/09 09:02:31;;;;;;;5.47;2.17;;;19.70;99.90;;;;;;5080191;28;20458;-74
2021/08/09 09:05:10;;;;;;;2.50;1.50;;;19.80;99.90;;;;;;5078466;28;20553;-74
2021/08/09 09:07:39;;;;;;;3.30;1.90;;;19.80;99.90;;;;;;5078927;28;20866;-73
2021/08/09 09:10:22;;;;;;;8.50;2.40;;;20.00;99.90;;;;;;5080000;28;20493;-74
2021/08/09 09:13:09;;;;;;;3.73;2.53;;;20.00;99.90;;;;;;5079678;28;20883;-74
2021/08/09 09:16:02;;;;;;;2.60;2.37;;;20.20;99.90;;;;;;5079083;28;20751;-74
2021/08/09 09:18:45;;;;;;;3.70;2.10;;;20.30;99.90;;;;;;5077923;28;20891;-74
2021/08/09 09:21:13;;;;;;;2.60;2.40;;;20.50;99.90;;;;;;5078740;28;20435;-73
2021/08/09 09:23:41;;;;;;;3.50;2.40;;;20.70;99.90;;;;;;5080157;28;20496;-73
2021/08/09 09:26:29;;;;;;;8.03;3.00;;;20.80;99.90;;;;;;5079025;28;20458;-74
2021/08/09 09:29:06;;;;;;;2.30;2.00;;;20.80;99.90;;;;;;5073927;28;20532;-74
2021/08/09 09:31:33;;;;;;;3.10;2.23;;;20.80;99.90;;;;;;5078356;28;20529;-74
2021/08/09 09:34:03;;;;;;;2.30;2.10;;;20.90;99.90;;;;;;5078759;28;20771;-73
2021/08/09 09:36:31;;;;;;;3.70;1.80;;;21.00;99.90;;;;;;5078500;28;20454;-74
2021/08/09 09:38:59;;;;;;;3.73;1.97;;;21.00;99.90;;;;;;5079858;28;20482;-74
2021/08/09 09:41:26;;;;;;;2.57;2.00;;;21.10;99.90;;;;;;5079840;28;20450;-74
2021/08/09 09:43:53;;;;;;;2.63;2.00;;;21.20;99.90;;;;;;5078982;28;20464;-75
2021/08/09 09:46:25;;;;;;;4.90;2.20;;;21.20;99.90;;;;;;5078944;28;20506;-73
2021/08/09 09:48:56;;;;;;;5.10;1.83;;;21.30;99.90;;;;;;5078326;28;20452;-73
2021/08/09 09:51:23;;;;;;;4.80;2.40;;;21.30;99.90;;;;;;5077938;28;20470;-73
2021/08/09 09:53:52;;;;;;;3.40;2.50;;;21.30;99.90;;;;;;5078299;28;20458;-74
2021/08/09 09:56:21;;;;;;;2.03;1.70;;;21.40;99.90;;;;;;5077456;28;20464;-73
2021/08/09 09:58:48;;;;;;;2.23;2.03;;;21.50;99.90;;;;;;5078585;28;20463;-73
2021/08/09 10:01:17;;;;;;;3.20;2.00;;;21.50;99.90;;;;;;5078715;28;20458;-74
2021/08/09 10:03:44;;;;;;;3.13;2.03;;;21.50;99.90;;;;;;5078260;28;20511;-74
2021/08/09 10:06:15;;;;;;;5.67;2.50;;;21.70;99.90;;;;;;5078591;28;20474;-74
2021/08/09 10:08:43;;;;;;;3.63;2.43;;;21.80;99.90;;;;;;5078139;28;20457;-74
2021/08/09 10:11:10;;;;;;;3.80;1.77;;;22.00;99.90;;;;;;5077626;28;20515;-74
2021/08/09 10:13:40;;;;;;;1.90;1.70;;;22.10;99.90;;;;;;5077197;28;20819;-74
2021/08/09 10:16:08;;;;;;;3.80;2.60;;;22.00;99.90;;;;;;5077176;28;20552;-74
2021/08/09 10:18:37;;;;;;;2.73;1.97;;;22.20;99.90;;;;;;5076638;28;20915;-73
2021/08/09 10:21:06;;;;;;;6.97;1.93;;;22.10;99.90;;;;;;5078152;28;20771;-73
2021/08/09 10:23:41;;;;;;;5.00;2.10;;;22.10;99.90;;;;;;5078840;28;20460;-73
2021/08/09 10:26:10;;;;;;;4.07;2.20;;;22.00;99.90;;;;;;5078215;28;20430;-73
2021/08/09 10:29:04;;;;;;;2.10;1.90;;;21.90;99.90;;;;;;5077591;28;20450;-74
2021/08/09 10:31:34;;;;;;;2.50;1.80;;;21.90;99.90;;;;;;5076637;28;20818;-73
2021/08/09 10:34:02;;;;;;;2.77;1.57;;;21.90;99.90;;;;;;5076833;28;20748;-73
2021/08/09 10:36:49;;;;;;;2.60;2.03;;;21.90;99.90;;;;;;5076647;28;20911;-73
2021/08/09 10:39:51;;;;;;;7.37;2.40;;;21.90;99.90;;;;;;5076473;28;20482;-73
2021/08/09 10:42:36;;;;;;;2.60;1.70;;;21.90;99.90;;;;;;5075756;28;20442;-74
2021/08/09 10:45:05;;;;;;;3.40;2.00;;;22.00;99.90;;;;;;5075374;28;20446;-74
2021/08/09 10:47:52;;;;;;;2.10;1.53;;;22.10;99.90;;;;;;5074694;28;20457;-73
2021/08/09 10:50:54;;;;;;;4.53;2.00;;;22.20;99.90;;;;;;5077374;28;20488;-74
2021/08/09 10:53:49;;;;;;;3.70;1.80;;;22.40;99.90;;;;;;5074939;28;20463;-75
2021/08/09 10:56:46;;;;;;;3.30;1.70;;;22.40;99.90;;;;;;5073825;28;20462;-75
2021/08/09 10:59:46;;;;;;;2.00;1.70;;;22.60;99.90;;;;;;5073652;28;20439;-74
2021/08/09 11:02:22;;;;;;;3.87;1.37;;;22.60;99.90;;;;;;5012530;28;20906;-74
2021/08/09 11:05:26;;;;;;;4.30;1.47;;;22.80;99.90;;;;;;5012164;28;20502;-73
2021/08/09 11:08:34;;;;;;;3.97;1.57;;;23.00;99.90;;;;;;5059191;28;20449;-75
2021/08/09 11:11:06;;;;;;;6.30;1.53;;;23.30;99.90;;;;;;5039789;28;20486;-73
2021/08/09 11:14:15;;;;;;;4.93;2.30;;;23.40;99.90;;;;;;5073609;28;20520;-73
2021/08/09 11:16:42;;;;;;;2.53;1.50;;;23.50;99.90;;;;;;5057110;28;20930;-73
2021/08/09 11:19:08;;;;;;;2.07;1.30;;;23.60;99.90;;;;;;5074046;28;20457;-73
2021/08/09 11:21:35;;;;;;;7.00;1.80;;;23.70;99.90;;;;;;5073848;28;20469;-73
2021/08/09 11:24:02;;;;;;;4.87;1.60;;;23.80;99.90;;;;;;5074303;28;20446;-73
2021/08/09 11:26:32;;;;;;;1.60;1.27;;;23.90;99.90;;;;;;5073917;28;20465;-73
2021/08/09 11:29:00;;;;;;;3.33;1.40;;;24.10;99.90;;;;;;5075475;28;20486;-73
2021/08/09 11:31:29;;;;;;;2.27;1.40;;;24.30;99.90;;;;;;5077437;28;20568;-73
2021/08/09 11:34:06;;;;;;;1.83;1.30;;;24.60;99.90;;;;;;5077198;28;20458;-74
2021/08/09 11:36:33;;;;;;;2.43;1.50;;;24.90;99.90;;;;;;5076579;28;20533;-74
2021/08/09 11:39:03;;;;;;;3.80;1.20;;;25.30;99.90;;;;;;5076939;28;20490;-73
2021/08/09 11:41:31;;;;;;;2.33;1.30;;;25.50;99.90;;;;;;5077604;28;20847;-73
2021/08/09 11:44:04;;;;;;;2.37;1.60;;;25.80;99.90;;;;;;5077153;28;20451;-73
2021/08/09 11:46:32;;;;;;;2.83;1.43;;;25.90;99.90;;;;;;5077374;28;20883;-73
2021/08/09 11:49:00;;;;;;;2.03;1.30;;;26.30;99.90;;;;;;5077394;28;20458;-74
2021/08/09 11:51:30;;;;;;;2.07;1.40;;;26.50;99.90;;;;;;5077331;28;20478;-73
2021/08/09 11:53:58;;;;;;;3.40;1.37;;;26.80;99.90;;;;;;5077445;28;20454;-73
2021/08/09 11:56:30;;;;;;;2.00;1.20;;;27.10;99.90;;;;;;5076971;28;20464;-74
2021/08/09 11:58:58;;;;;;;2.00;1.57;;;27.10;99.90;;;;;;5077048;28;20453;-74
2021/08/09 12:01:36;;;;;;;2.43;1.20;;;26.90;99.90;;;;;;5077113;28;20458;-74
2021/08/09 12:04:06;;;;;;;2.57;1.47;;;26.80;99.90;;;;;;5077238;28;20454;-73
2021/08/09 12:06:34;;;;;;;3.60;1.50;;;26.60;99.90;;;;;;5076944;28;20442;-73
2021/08/09 12:09:01;;;;;;;2.47;1.40;;;26.30;99.90;;;;;;5076923;28;20521;-73
2021/08/09 12:11:31;;;;;;;3.70;1.70;;;26.20;99.90;;;;;;5076787;28;20486;-74
2021/08/09 12:14:10;;;;;;;2.43;1.33;;;26.10;99.90;;;;;;5076456;28;20454;-73
2021/08/09 12:16:49;;;;;;;2.30;1.77;;;25.90;99.90;;;;;;5076167;28;20454;-73
2021/08/09 12:19:19;;;;;;;12.00;2.20;;;25.70;99.90;;;;;;5077027;28;20481;-72
2021/08/09 12:21:46;;;;;;;4.23;1.37;;;25.50;99.90;;;;;;5076619;28;20466;-73
2021/08/09 12:24:20;;;;;;;3.70;1.53;;;25.40;99.90;;;;;;5075779;28;20915;-73
2021/08/09 12:26:47;;;;;;;3.20;1.40;;;25.20;99.90;;;;;;5076325;28;20504;-73
2021/08/09 12:29:19;;;;;;;4.53;1.70;;;25.10;99.90;;;;;;5076430;28;20454;-74
2021/08/09 12:31:48;;;;;;;1.80;1.33;;;24.80;99.90;;;;;;5076051;28;20496;-74
2021/08/09 12:34:17;;;;;;;2.03;1.30;;;24.70;99.90;;;;;;5076229;28;20443;-74
2021/08/09 12:36:44;;;;;;;5.00;1.50;;;24.50;99.90;;;;;;5076282;28;20462;-74
2021/08/09 12:39:28;;;;;;;3.00;1.40;;;24.50;99.90;;;;;;5075782;28;20486;-74
2021/08/09 12:41:55;;;;;;;2.97;1.73;;;24.50;99.90;;;;;;5075336;28;20775;-73
2021/08/09 12:44:22;;;;;;;2.83;1.47;;;24.50;99.90;;;;;;5075850;28;20892;-73
2021/08/09 12:46:50;;;;;;;3.83;1.60;;;24.40;99.90;;;;;;5075495;28;20521;-74
2021/08/09 12:49:27;;;;;;;2.60;1.37;;;24.40;99.90;;;;;;5075939;28;20462;-73
2021/08/09 12:51:54;;;;;;;2.70;1.67;;;24.50;99.90;;;;;;5075610;28;20438;-74
2021/08/09 12:54:21;;;;;;;2.43;1.40;;;24.70;99.90;;;;;;5076069;28;20737;-74
2021/08/09 12:56:48;;;;;;;3.60;2.00;;;24.80;99.90;;;;;;5076247;28;20549;-73
2021/08/09 12:59:15;;;;;;;3.27;1.53;;;24.90;99.90;;;;;;5076003;28;20465;-74
2021/08/09 13:01:42;;;;;;;2.53;1.40;;;25.00;99.90;;;;;;5075742;28;20460;-73